createdAt,value
2023-01-22T00:04:31.286Z,103078.44
2023-01-22T00:09:32.743Z,103083.84
2023-01-22T00:14:34.247Z,103078.91
2023-01-22T00:19:35.733Z,103074.66
2023-01-22T00:24:37.548Z,103074.47
2023-01-22T00:29:39.007Z,103071.88
2023-01-22T00:34:40.462Z,103074.31
2023-01-22T00:39:41.925Z,103071.00
2023-01-22T00:44:43.387Z,103071.66
2023-01-22T00:49:44.863Z,103068.53
2023-01-22T00:54:46.352Z,103076.63
2023-01-22T00:59:48.598Z,103064.59
2023-01-22T01:04:50.047Z,103061.84
2023-01-22T01:09:51.506Z,103054.66
2023-01-22T01:14:55.769Z,103056.25
2023-01-22T01:19:57.243Z,103050.66
2023-01-22T01:24:58.707Z,103041.00
2023-01-22T01:30:00.172Z,103044.09
2023-01-22T01:35:01.625Z,103071.34
2023-01-22T01:40:03.180Z,103045.75
2023-01-22T01:45:20.296Z,103050.38
2023-01-22T01:50:21.758Z,103049.56
2023-01-22T01:55:26.848Z,103047.25
2023-01-22T02:00:28.914Z,103053.66
2023-01-22T02:05:32.320Z,103039.19
2023-01-22T02:10:33.787Z,103045.78
2023-01-22T02:15:35.866Z,103038.03
2023-01-22T02:20:38.573Z,103045.41
2023-01-22T02:25:40.032Z,103053.31
2023-01-22T02:30:41.725Z,103044.44
2023-01-22T02:35:43.184Z,103044.25
2023-01-22T02:40:49.219Z,103051.69
2023-01-22T02:45:50.880Z,103038.59
2023-01-22T02:50:52.426Z,103032.13
2023-01-22T02:55:53.964Z,103020.66
2023-01-22T03:00:55.502Z,103024.69
2023-01-22T03:05:56.993Z,103013.19
2023-01-22T03:10:58.664Z,103013.59
2023-01-22T03:16:21.144Z,103011.69
2023-01-22T03:21:22.656Z,103015.50
2023-01-22T03:26:24.167Z,103009.69
2023-01-22T03:31:25.730Z,102999.38
2023-01-22T03:36:27.302Z,103004.28
2023-01-22T03:41:28.757Z,103003.03
2023-01-22T03:46:30.423Z,103005.34
2023-01-22T03:51:31.910Z,102998.66
2023-01-22T03:56:33.521Z,103016.78
2023-01-22T04:01:35.065Z,102994.75
2023-01-22T04:06:36.579Z,103002.16
2023-01-22T04:11:38.038Z,103019.34
2023-01-22T04:16:39.563Z,103018.06
2023-01-22T04:21:41.034Z,103017.16
2023-01-22T04:26:42.486Z,103018.59
2023-01-22T04:31:43.954Z,103014.78
2023-01-22T04:36:45.432Z,103006.41
2023-01-22T04:41:46.892Z,103005.94
2023-01-22T04:46:48.348Z,103024.63
2023-01-22T04:51:49.807Z,103035.53
2023-01-22T04:56:51.321Z,103017.22
2023-01-22T05:01:52.988Z,103024.16
2023-01-22T05:06:54.501Z,103031.44
2023-01-22T05:11:55.969Z,103022.25
2023-01-22T05:16:57.455Z,103014.28
2023-01-22T05:21:58.925Z,103021.84
2023-01-22T05:27:00.387Z,103015.00
2023-01-22T05:32:01.849Z,103014.94
2023-01-22T05:37:03.354Z,103021.97
2023-01-22T05:42:04.838Z,103037.91
2023-01-22T05:47:06.343Z,103040.03
2023-01-22T05:52:10.567Z,103034.09
2023-01-22T05:57:13.090Z,103044.91
2023-01-22T06:02:14.631Z,103060.50
2023-01-22T06:07:16.288Z,103045.31
2023-01-22T06:12:18.501Z,103052.22
2023-01-22T06:17:20.276Z,103041.97
2023-01-22T06:22:21.748Z,103031.25
2023-01-22T06:27:23.245Z,103032.81
2023-01-22T06:32:24.727Z,103025.78
2023-01-22T06:37:26.198Z,103024.16
2023-01-22T06:42:27.665Z,103040.63
2023-01-22T06:47:29.122Z,103038.09
2023-01-22T06:52:30.587Z,103035.72
2023-01-22T06:57:32.043Z,103028.66
2023-01-22T07:02:33.509Z,103043.53
2023-01-22T07:07:34.978Z,103052.19
2023-01-22T07:12:36.458Z,103050.78
2023-01-22T07:17:37.948Z,103047.41
2023-01-22T07:22:39.427Z,103055.00
2023-01-22T07:27:40.903Z,103064.38
2023-01-22T07:32:42.425Z,103062.50
2023-01-22T07:37:43.913Z,103074.22
2023-01-22T07:42:45.412Z,103078.28
2023-01-22T07:47:56.897Z,103071.00
2023-01-22T07:53:00.528Z,103079.94
2023-01-22T07:58:03.549Z,103078.97
2023-01-22T08:03:05.129Z,103090.19
2023-01-22T08:08:07.317Z,103105.66
2023-01-22T08:13:08.786Z,103101.44
2023-01-22T08:18:10.991Z,103110.94
2023-01-22T08:23:12.470Z,103115.81
2023-01-22T08:28:13.949Z,103111.22
2023-01-22T08:33:15.889Z,103107.50
2023-01-22T08:38:17.516Z,103105.75
2023-01-22T08:43:19.008Z,103114.84
2023-01-22T08:48:20.499Z,103122.59
2023-01-22T08:53:21.972Z,103113.84
2023-01-22T08:58:25.289Z,103135.84
2023-01-22T09:03:26.780Z,103124.88
2023-01-22T09:08:28.256Z,103131.97
2023-01-22T09:13:29.724Z,103132.13
2023-01-22T09:18:31.189Z,103135.06
2023-01-22T09:23:32.664Z,103134.19
2023-01-22T09:28:36.017Z,103146.97
2023-01-22T09:33:37.662Z,103143.44
2023-01-22T09:38:39.176Z,103150.31
2023-01-22T09:44:05.192Z,103165.97
2023-01-22T09:49:10.838Z,103169.75
2023-01-22T09:54:15.409Z,103164.31
2023-01-22T09:59:21.657Z,103162.41
2023-01-22T10:04:29.257Z,103179.22
2023-01-22T10:09:31.608Z,103161.44
2023-01-22T10:14:33.113Z,103174.13
2023-01-22T10:19:41.264Z,103165.56
2023-01-22T10:24:42.725Z,103149.47
2023-01-22T10:30:23.725Z,103140.13
2023-01-22T10:35:25.193Z,103140.59
2023-01-22T10:40:35.765Z,103139.28
2023-01-22T10:45:37.541Z,103135.81
2023-01-22T10:50:39.070Z,103134.41
2023-01-22T10:55:40.883Z,103135.50
2023-01-22T11:00:51.919Z,103130.09
2023-01-22T11:05:59.997Z,103130.91
2023-01-22T11:11:04.372Z,103117.00
2023-01-22T11:16:19.942Z,103109.03
2023-01-22T11:21:30.030Z,103101.53
2023-01-22T11:26:34.866Z,103121.25
2023-01-22T11:31:39.507Z,103128.63
2023-01-22T11:36:47.796Z,103121.47
2023-01-22T11:42:03.340Z,103114.53
2023-01-22T11:47:14.957Z,103119.44
2023-01-22T11:52:27.343Z,103116.91
2023-01-22T11:57:30.860Z,103107.13
2023-01-22T12:02:38.878Z,103096.63
2023-01-22T12:08:04.978Z,103103.03
2023-01-22T12:13:09.166Z,103097.22
2023-01-22T12:18:45.598Z,103092.09
2023-01-22T12:23:53.203Z,103092.25
2023-01-22T12:28:56.585Z,103091.81
2023-01-22T12:33:59.906Z,103090.91
2023-01-22T12:39:28.954Z,103092.97
2023-01-22T12:44:38.602Z,103092.69
2023-01-22T12:49:47.241Z,103095.81
2023-01-22T12:54:54.321Z,103093.94
2023-01-22T12:59:56.695Z,103078.69
2023-01-22T13:05:10.795Z,103073.94
2023-01-22T13:10:35.109Z,103073.03
2023-01-22T13:15:37.513Z,103064.81
2023-01-22T13:21:08.912Z,103070.78
2023-01-22T13:26:21.522Z,103073.03
2023-01-22T13:31:23.246Z,103065.22
2023-01-22T13:36:25.301Z,103057.16
2023-01-22T13:41:37.215Z,103056.31
2023-01-22T13:46:38.777Z,103066.13
2023-01-22T13:51:40.288Z,103078.34
2023-01-22T13:56:41.811Z,103072.28
2023-01-22T14:01:43.367Z,103066.97
2023-01-22T14:06:47.179Z,103060.44
2023-01-22T14:11:50.067Z,103072.75
2023-01-22T14:16:51.704Z,103084.56
2023-01-22T14:21:53.505Z,103073.13
2023-01-22T14:26:56.734Z,103084.75
2023-01-22T14:31:58.255Z,103087.41
2023-01-22T14:36:59.954Z,103088.81
2023-01-22T14:42:01.582Z,103084.72
2023-01-22T14:47:04.108Z,103099.16
2023-01-22T14:52:05.603Z,103098.84
2023-01-22T14:57:07.176Z,103098.03
2023-01-22T15:02:10.374Z,103108.84
2023-01-22T15:07:12.236Z,103105.66
2023-01-22T15:12:13.707Z,103112.25
2023-01-22T15:17:15.166Z,103106.94
2023-01-22T15:22:16.666Z,103122.84
2023-01-22T15:27:18.765Z,103112.31
2023-01-22T15:32:20.365Z,103125.00
2023-01-22T15:37:21.881Z,103115.03
2023-01-22T15:42:23.339Z,103119.72
2023-01-22T15:47:24.848Z,103113.44
2023-01-22T15:52:26.333Z,103126.28
2023-01-22T15:57:27.855Z,103123.34
2023-01-22T16:02:29.363Z,103124.25
2023-01-22T16:07:30.833Z,103114.34
2023-01-22T16:12:32.388Z,103125.19
2023-01-22T16:17:33.903Z,103134.19
2023-01-22T16:22:35.359Z,103124.75
2023-01-22T16:27:36.823Z,103129.56
2023-01-22T16:32:43.399Z,103130.78
2023-01-22T16:37:45.003Z,103124.22
2023-01-22T16:42:58.056Z,103131.81
2023-01-22T16:47:59.580Z,103135.19
2023-01-22T16:53:01.107Z,103146.59
2023-01-22T16:58:02.580Z,103135.28
2023-01-22T17:03:04.120Z,103136.78
2023-01-22T17:08:05.602Z,103151.59
2023-01-22T17:13:07.073Z,103156.66
2023-01-22T17:18:08.529Z,103152.28
2023-01-22T17:23:09.997Z,103165.78
2023-01-22T17:28:11.466Z,103168.41
2023-01-22T17:38:19.344Z,103174.88
2023-01-22T17:43:20.816Z,103168.47
2023-01-22T17:48:22.461Z,103177.00
2023-01-22T17:53:23.922Z,103176.66
2023-01-22T17:58:25.693Z,103172.34
2023-01-22T18:03:27.158Z,103181.78
2023-01-22T18:08:29.627Z,103174.44
2023-01-22T18:13:31.087Z,103174.78
2023-01-22T18:18:32.547Z,103183.88
2023-01-22T18:23:34.190Z,103187.09
2023-01-22T18:28:35.880Z,103197.97
2023-01-22T18:33:37.664Z,103199.84
2023-01-22T18:38:39.813Z,103195.88
2023-01-22T18:43:41.423Z,103191.88
2023-01-22T18:48:42.966Z,103207.56
2023-01-22T18:53:44.462Z,103201.88
2023-01-22T18:58:46.264Z,103196.44
2023-01-22T19:03:49.461Z,103198.84
2023-01-22T19:09:05.278Z,103199.50
2023-01-22T19:14:09.029Z,103202.16
2023-01-22T19:19:13.265Z,103199.94
2023-01-22T19:24:16.414Z,103196.06
2023-01-22T19:29:17.885Z,103205.16
2023-01-22T19:34:23.659Z,103205.06
2023-01-22T19:39:25.430Z,103198.66
2023-01-22T19:44:26.912Z,103191.56
2023-01-22T19:49:28.842Z,103205.97
2023-01-22T19:54:30.334Z,103208.22
2023-01-22T19:59:31.824Z,103209.28
2023-01-22T20:04:34.321Z,103207.19
2023-01-22T20:09:35.953Z,103222.88
2023-01-22T20:14:41.194Z,103220.06
2023-01-22T20:19:42.744Z,103233.31
2023-01-22T20:24:44.210Z,103226.44
2023-01-22T20:29:45.694Z,103243.81
2023-01-22T20:34:48.919Z,103247.00
2023-01-22T20:39:50.404Z,103250.81
2023-01-22T20:44:51.911Z,103247.06
2023-01-22T20:49:53.365Z,103244.00
2023-01-22T20:55:01.720Z,103236.34
2023-01-22T21:00:04.798Z,103247.19
2023-01-22T21:05:06.631Z,103256.81
2023-01-22T21:10:08.866Z,103266.66
2023-01-22T21:15:10.458Z,103260.59
2023-01-22T21:20:12.193Z,103264.50
2023-01-22T21:25:13.683Z,103257.88
2023-01-22T21:30:15.209Z,103259.69
2023-01-22T21:35:16.766Z,103257.72
2023-01-22T21:40:18.545Z,103267.97
2023-01-22T21:45:38.518Z,103269.72
2023-01-22T21:50:41.075Z,103264.88
2023-01-22T21:55:50.378Z,103267.16
2023-01-22T22:00:54.686Z,103256.19
2023-01-22T22:05:56.602Z,103260.72
2023-01-22T22:10:58.103Z,103264.66
2023-01-22T22:16:00.248Z,103262.91
2023-01-22T22:21:03.605Z,103263.66
2023-01-22T22:26:05.744Z,103258.19
2023-01-22T22:31:11.671Z,103251.94
2023-01-22T22:36:13.787Z,103271.00
2023-01-22T22:41:17.614Z,103271.91
2023-01-22T22:46:22.913Z,103280.94
2023-01-22T22:51:29.407Z,103279.44
2023-01-22T22:56:31.412Z,103279.06
2023-01-22T23:01:33.253Z,103273.78
2023-01-22T23:06:35.556Z,103272.34
2023-01-22T23:11:37.054Z,103277.06
2023-01-22T23:16:40.268Z,103278.03
2023-01-22T23:21:41.950Z,103287.53
2023-01-22T23:26:43.824Z,103285.13
2023-01-22T23:31:45.483Z,103280.78
2023-01-22T23:36:47.311Z,103287.47
2023-01-22T23:41:48.803Z,103274.56
2023-01-22T23:46:50.320Z,103285.56
2023-01-22T23:51:51.824Z,103274.06
2023-01-22T23:56:53.281Z,103270.44
